createdAt,value
2023-03-21T00:00:45.002Z,100059.94
2023-03-21T00:02:07.277Z,100063.25
2023-03-21T00:03:28.979Z,100052.03
2023-03-21T00:04:53.653Z,100056.88
2023-03-21T00:06:17.013Z,100059.75
2023-03-21T00:07:39.359Z,100055.19
2023-03-21T00:09:04.093Z,100009.97
2023-03-21T00:10:39.132Z,100024.31
2023-03-21T00:12:07.503Z,100052.97
2023-03-21T00:13:32.845Z,100012.66
2023-03-21T00:14:56.408Z,100036.06
2023-03-21T00:16:21.858Z,100022.81
2023-03-21T00:17:50.943Z,100053.63
2023-03-21T00:19:14.765Z,100017.09
2023-03-21T00:20:37.956Z,100008.09
2023-03-21T00:22:08.153Z,100043.22
2023-03-21T00:23:34.167Z,100041.16
2023-03-21T00:24:56.918Z,100041.16
2023-03-21T00:26:18.552Z,100029.28
2023-03-21T00:27:57.192Z,100017.88
2023-03-21T00:29:24.925Z,100038.84
2023-03-21T00:30:46.444Z,100038.03
2023-03-21T00:32:09.927Z,100034.69
2023-03-21T00:33:34.062Z,100023.47
2023-03-21T00:35:16.409Z,100028.63
2023-03-21T00:36:38.322Z,100030.50
2023-03-21T00:38:01.304Z,100030.06
2023-03-21T00:39:23.417Z,100023.81
2023-03-21T00:40:49.272Z,100022.13
2023-03-21T00:42:11.374Z,100029.00
2023-03-21T00:43:33.803Z,100014.41
2023-03-21T00:44:59.310Z,100027.97
2023-03-21T00:46:23.298Z,100020.09
2023-03-21T00:47:44.592Z,100024.47
2023-03-21T00:49:07.466Z,100027.97
2023-03-21T00:50:28.485Z,100024.47
2023-03-21T00:51:53.362Z,100027.16
2023-03-21T00:53:16.615Z,100025.28
2023-03-21T00:54:38.024Z,100019.06
2023-03-21T00:56:00.115Z,100013.03
2023-03-21T00:57:37.609Z,100013.03
2023-03-21T00:59:02.793Z,100015.56
2023-03-21T01:00:24.360Z,100007.53
2023-03-21T01:01:47.008Z,100022.88
2023-03-21T01:03:23.278Z,100018.06
2023-03-21T01:04:46.809Z,100023.53
2023-03-21T01:06:09.384Z,100028.25
2023-03-21T01:07:31.289Z,100044.91
2023-03-21T01:08:53.733Z,100041.38
2023-03-21T01:10:16.375Z,100045.72
2023-03-21T01:11:38.430Z,100045.28
2023-03-21T01:12:59.239Z,100047.69
2023-03-21T01:14:26.437Z,100033.56
2023-03-21T01:15:50.061Z,100038.44
2023-03-21T01:17:12.265Z,100028.81
2023-03-21T01:18:35.347Z,100040.84
2023-03-21T01:19:57.607Z,100033.31
2023-03-21T01:21:20.489Z,100033.25
2023-03-21T01:22:41.670Z,100035.44
2023-03-21T01:24:04.035Z,100041.38
2023-03-21T01:25:25.355Z,100034.72
2023-03-21T01:26:47.638Z,100029.22
2023-03-21T01:28:09.882Z,100029.38
2023-03-21T01:29:33.537Z,100032.66
2023-03-21T01:30:54.901Z,100019.75
2023-03-21T01:32:17.013Z,100019.91
2023-03-21T01:33:38.237Z,100027.31
2023-03-21T01:35:00.765Z,100025.53
2023-03-21T01:36:24.340Z,100025.75
2023-03-21T01:37:50.302Z,99994.34
2023-03-21T01:39:12.399Z,100019.69
2023-03-21T01:40:33.854Z,100014.69
2023-03-21T01:42:06.894Z,100008.16
2023-03-21T01:43:30.392Z,100007.50
2023-03-21T01:45:00.691Z,100018.09
2023-03-21T01:46:51.533Z,100001.50
2023-03-21T01:48:40.321Z,100008.91
2023-03-21T01:50:05.011Z,100017.13
2023-03-21T01:51:47.113Z,100011.97
2023-03-21T01:53:13.995Z,100019.16
2023-03-21T01:54:40.053Z,100011.28
2023-03-21T01:56:07.095Z,100004.06
2023-03-21T01:57:58.562Z,99995.19
2023-03-21T01:59:30.531Z,100008.09
2023-03-21T02:01:28.941Z,100020.72
2023-03-21T02:03:06.173Z,100014.50
2023-03-21T02:04:41.327Z,100016.53
2023-03-21T02:06:16.050Z,100012.53
2023-03-21T02:07:44.398Z,100024.16
2023-03-21T02:09:16.089Z,100021.16
2023-03-21T02:10:37.777Z,100010.81
2023-03-21T02:12:01.490Z,100017.16
2023-03-21T02:13:25.435Z,100020.19
2023-03-21T02:14:50.324Z,100027.06
2023-03-21T02:16:46.875Z,100027.41
2023-03-21T02:18:18.681Z,100019.75
2023-03-21T02:20:34.769Z,100027.81
2023-03-21T02:22:28.394Z,100027.16
2023-03-21T02:24:12.787Z,100030.88
2023-03-21T02:26:10.335Z,100024.16
2023-03-21T02:27:35.192Z,100028.53
2023-03-21T02:29:02.968Z,100026.84
2023-03-21T02:31:15.903Z,100029.72
2023-03-21T02:33:04.619Z,100023.50
2023-03-21T02:34:54.880Z,100029.91
2023-03-21T02:36:26.489Z,100034.25
2023-03-21T02:38:00.503Z,100031.56
2023-03-21T02:39:28.495Z,100032.75
2023-03-21T02:41:03.375Z,100025.53
2023-03-21T02:42:36.011Z,100029.53
2023-03-21T02:44:06.991Z,100033.25
2023-03-21T02:45:36.308Z,100022.50
2023-03-21T02:47:06.430Z,100017.47
2023-03-21T02:48:49.703Z,100034.25
2023-03-21T02:50:17.708Z,100030.38
2023-03-21T02:51:42.072Z,100034.75
2023-03-21T02:53:08.823Z,100033.72
2023-03-21T02:54:47.292Z,100024.84
2023-03-21T02:56:11.236Z,100040.59
2023-03-21T02:57:43.150Z,100038.94
2023-03-21T02:59:07.972Z,100017.78
2023-03-21T03:00:33.967Z,100035.72
2023-03-21T03:01:57.061Z,100025.84
2023-03-21T03:03:33.014Z,100034.53
2023-03-21T03:04:56.941Z,100024.63
2023-03-21T03:06:24.256Z,100027.09
2023-03-21T03:07:58.354Z,100016.91
2023-03-21T03:09:32.606Z,100025.06
2023-03-21T03:11:10.200Z,100023.78
2023-03-21T03:12:44.501Z,100029.47
2023-03-21T03:14:50.034Z,100031.28
2023-03-21T03:16:25.903Z,100026.94
2023-03-21T03:17:55.632Z,100025.44
2023-03-21T03:19:26.215Z,100036.50
2023-03-21T03:21:01.092Z,100018.56
2023-03-21T03:22:27.100Z,100030.09
2023-03-21T03:23:54.273Z,100033.63
2023-03-21T03:25:36.052Z,100036.31
2023-03-21T03:27:08.929Z,100040.84
2023-03-21T03:28:36.621Z,100027.97
2023-03-21T03:30:05.217Z,100032.31
2023-03-21T03:31:33.312Z,100029.97
2023-03-21T03:33:01.292Z,100036.66
2023-03-21T03:34:28.736Z,100036.84
2023-03-21T03:36:04.471Z,100034.16
2023-03-21T03:37:33.508Z,100028.97
2023-03-21T03:38:56.408Z,100035.34
2023-03-21T03:40:26.660Z,100032.00
2023-03-21T03:42:15.449Z,100038.50
2023-03-21T03:43:52.419Z,100038.50
2023-03-21T03:45:14.949Z,100038.50
2023-03-21T03:46:45.065Z,100036.66
2023-03-21T03:48:14.145Z,100035.81
2023-03-21T03:49:42.884Z,100041.88
2023-03-21T03:51:10.103Z,100040.22
2023-03-21T03:52:59.924Z,100032.31
2023-03-21T03:54:29.986Z,100029.16
2023-03-21T03:55:55.827Z,100029.97
2023-03-21T03:57:18.973Z,100036.66
2023-03-21T03:58:45.964Z,100033.34
2023-03-21T04:00:13.083Z,100042.03
2023-03-21T04:01:43.735Z,100044.72
2023-03-21T04:03:07.393Z,100045.75
2023-03-21T04:04:31.944Z,100041.22
2023-03-21T04:05:54.202Z,100046.56
2023-03-21T04:07:16.746Z,100046.56
2023-03-21T04:08:37.961Z,100041.22
2023-03-21T04:10:00.555Z,100036.19
2023-03-21T04:11:24.989Z,100039.72
2023-03-21T04:12:48.062Z,100046.41
2023-03-21T04:14:44.457Z,100037.22
2023-03-21T04:16:09.079Z,100045.09
2023-03-21T04:17:33.507Z,100047.41
2023-03-21T04:18:57.078Z,100048.44
2023-03-21T04:20:30.298Z,100046.56
2023-03-21T04:21:58.384Z,100055.31
2023-03-21T04:23:21.112Z,100050.09
2023-03-21T04:24:44.978Z,100051.97
2023-03-21T04:26:08.518Z,100051.97
2023-03-21T04:27:36.040Z,100041.22
2023-03-21T04:29:17.888Z,100049.94
2023-03-21T04:31:03.515Z,100055.97
2023-03-21T04:32:39.670Z,100049.78
2023-03-21T04:34:12.784Z,100052.44
2023-03-21T04:35:39.863Z,100047.25
2023-03-21T04:37:03.610Z,100052.25
2023-03-21T04:38:30.813Z,100039.34
2023-03-21T04:39:56.803Z,100053.13
2023-03-21T04:41:18.242Z,100056.63
2023-03-21T04:42:42.000Z,100057.47
2023-03-21T04:44:04.299Z,100054.94
2023-03-21T04:45:26.660Z,100052.91
2023-03-21T04:46:47.595Z,100054.63
2023-03-21T04:48:10.515Z,100056.28
2023-03-21T04:49:32.665Z,100053.13
2023-03-21T04:50:54.635Z,100041.88
2023-03-21T04:52:16.861Z,100062.31
2023-03-21T04:53:39.696Z,100056.44
2023-03-21T04:55:02.181Z,100057.78
2023-03-21T04:56:30.742Z,100058.59
2023-03-21T04:57:54.585Z,100060.47
2023-03-21T04:59:17.347Z,100052.22
2023-03-21T05:00:40.418Z,100049.88
2023-03-21T05:02:02.723Z,100057.41
2023-03-21T05:03:25.441Z,100058.22
2023-03-21T05:04:47.414Z,100043.19
2023-03-21T05:06:10.931Z,100052.69
2023-03-21T05:07:33.108Z,100060.09
2023-03-21T05:08:54.801Z,100059.25
2023-03-21T05:10:17.650Z,100063.44
2023-03-21T05:11:40.451Z,100058.22
2023-03-21T05:13:04.791Z,100058.91
2023-03-21T05:14:28.661Z,100051.19
2023-03-21T05:15:50.809Z,100067.25
2023-03-21T05:17:25.068Z,100057.38
2023-03-21T05:18:50.794Z,100051.88
2023-03-21T05:20:16.174Z,100050.66
2023-03-21T05:21:44.055Z,100061.56
2023-03-21T05:23:11.992Z,100046.13
2023-03-21T05:24:34.572Z,100067.41
2023-03-21T05:25:56.997Z,100067.41
2023-03-21T05:27:36.322Z,100069.91
2023-03-21T05:29:05.918Z,100074.44
2023-03-21T05:30:28.233Z,100053.81
2023-03-21T05:31:54.105Z,100065.53
2023-03-21T05:33:16.517Z,100066.19
2023-03-21T05:34:38.675Z,100068.53
2023-03-21T05:35:59.744Z,100064.84
2023-03-21T05:37:25.819Z,100074.72
2023-03-21T05:38:47.084Z,100069.84
2023-03-21T05:40:11.323Z,100066.50
2023-03-21T05:41:37.082Z,100073.66
2023-03-21T05:43:00.184Z,100083.06
2023-03-21T05:44:22.789Z,100075.66
2023-03-21T05:45:45.324Z,100069.97
2023-03-21T05:47:08.533Z,100075.75
2023-03-21T05:48:38.511Z,100080.13
2023-03-21T05:50:11.337Z,100082.63
2023-03-21T05:51:35.481Z,100083.94
2023-03-21T05:53:00.270Z,100079.38
2023-03-21T05:54:22.646Z,100085.91
2023-03-21T05:55:45.729Z,100078.47
2023-03-21T05:57:19.282Z,100085.91
2023-03-21T05:59:00.896Z,100086.56
2023-03-21T06:00:27.639Z,100085.34
2023-03-21T06:02:23.474Z,100085.34
2023-03-21T06:03:45.065Z,100066.47
2023-03-21T06:05:17.724Z,100096.78
2023-03-21T06:06:39.093Z,100092.06
2023-03-21T06:08:01.455Z,100084.72
2023-03-21T06:09:23.514Z,100089.81
2023-03-21T06:10:50.704Z,100082.63
2023-03-21T06:12:14.507Z,100090.69
2023-03-21T06:13:48.430Z,100091.50
2023-03-21T06:15:11.751Z,100087.78
2023-03-21T06:16:47.224Z,100095.50
2023-03-21T06:18:09.331Z,100090.13
2023-03-21T06:19:34.013Z,100096.81
2023-03-21T06:21:03.547Z,100083.56
2023-03-21T06:22:27.270Z,100092.75
2023-03-21T06:23:51.782Z,100089.41
2023-03-21T06:25:12.812Z,100086.72
2023-03-21T06:26:35.793Z,100087.81
2023-03-21T06:27:59.904Z,100082.63
2023-03-21T06:29:22.374Z,100100.91
2023-03-21T06:30:45.489Z,100095.34
2023-03-21T06:32:28.865Z,100088.31
2023-03-21T06:33:57.554Z,100102.88
2023-03-21T06:35:20.104Z,100097.16
2023-03-21T06:36:45.105Z,100091.78
2023-03-21T06:38:08.649Z,100092.44
2023-03-21T06:39:31.327Z,100101.91
2023-03-21T06:40:53.776Z,100097.66
2023-03-21T06:42:18.519Z,100098.78
2023-03-21T06:43:41.043Z,100094.22
2023-03-21T06:45:03.631Z,100109.28
2023-03-21T06:46:26.407Z,100090.31
2023-03-21T06:47:49.892Z,100106.84
2023-03-21T06:49:26.154Z,100102.47
2023-03-21T06:50:50.556Z,100105.38
2023-03-21T06:52:14.252Z,100107.69
2023-03-21T06:53:37.300Z,100108.13
2023-03-21T06:55:29.080Z,100105.44
2023-03-21T06:56:54.343Z,100103.06
2023-03-21T06:58:21.965Z,100113.06
2023-03-21T06:59:44.227Z,100106.03
2023-03-21T07:01:12.132Z,100119.78
2023-03-21T07:02:46.602Z,100122.47
2023-03-21T07:04:15.308Z,100124.31
2023-03-21T07:05:38.409Z,100119.28
2023-03-21T07:07:03.950Z,100125.34
2023-03-21T07:08:27.334Z,100123.69
2023-03-21T07:09:52.050Z,100118.00
2023-03-21T07:11:14.052Z,100117.81
2023-03-21T07:12:36.956Z,100130.28
2023-03-21T07:14:16.067Z,100109.44
2023-03-21T07:15:39.084Z,100119.94
2023-03-21T07:17:10.675Z,100097.19
2023-03-21T07:18:36.772Z,100107.03
2023-03-21T07:20:07.284Z,100123.41
2023-03-21T07:21:29.936Z,100111.41
2023-03-21T07:22:54.697Z,100125.59
2023-03-21T07:24:23.921Z,100104.63
2023-03-21T07:25:45.897Z,100135.94
2023-03-21T07:27:11.446Z,100121.34
2023-03-21T07:28:34.772Z,100110.84
2023-03-21T07:29:57.641Z,100133.81
2023-03-21T07:31:22.151Z,100131.38
2023-03-21T07:32:45.711Z,100125.50
2023-03-21T07:34:10.479Z,100132.88
2023-03-21T07:35:40.546Z,100132.22
2023-03-21T07:37:03.338Z,100134.91
2023-03-21T07:38:27.897Z,100113.84
2023-03-21T07:39:50.724Z,100141.34
2023-03-21T07:41:13.506Z,100138.38
2023-03-21T07:42:39.549Z,100132.59
2023-03-21T07:44:02.856Z,100136.28
2023-03-21T07:45:29.645Z,100137.16
2023-03-21T07:46:59.839Z,100140.47
2023-03-21T07:48:23.141Z,100143.38
2023-03-21T07:49:46.037Z,100149.41
2023-03-21T07:51:13.636Z,100143.38
2023-03-21T07:52:36.295Z,100143.16
2023-03-21T07:54:02.621Z,100141.69
2023-03-21T07:55:25.223Z,100129.63
2023-03-21T07:56:51.221Z,100151.19
2023-03-21T07:58:15.120Z,100156.09
2023-03-21T07:59:39.839Z,100132.69
2023-03-21T08:01:03.003Z,100124.22
2023-03-21T08:02:28.047Z,100154.06
2023-03-21T08:03:59.232Z,100119.84
2023-03-21T08:05:31.644Z,100150.97
2023-03-21T08:07:07.723Z,100120.44
2023-03-21T08:08:31.772Z,100124.22
2023-03-21T08:09:58.771Z,100124.50
2023-03-21T08:11:27.082Z,100154.97
2023-03-21T08:12:55.757Z,100149.41
2023-03-21T08:14:23.746Z,100131.66
2023-03-21T08:15:50.213Z,100118.91
2023-03-21T08:17:12.390Z,100144.84
2023-03-21T08:18:38.081Z,100154.44
2023-03-21T08:20:02.712Z,100155.75
2023-03-21T08:21:27.701Z,100159.25
2023-03-21T08:22:52.285Z,100155.75
2023-03-21T08:24:14.805Z,100152.47
2023-03-21T08:25:37.630Z,100157.22
2023-03-21T08:27:00.413Z,100154.59
2023-03-21T08:28:30.144Z,100155.91
2023-03-21T08:30:01.975Z,100121.06
2023-03-21T08:31:27.012Z,100161.28
2023-03-21T08:33:00.873Z,100160.16
2023-03-21T08:34:24.680Z,100154.81
2023-03-21T08:35:57.050Z,100135.41
2023-03-21T08:37:20.759Z,100145.06
2023-03-21T08:38:54.240Z,100162.06
2023-03-21T08:40:26.920Z,100163.16
2023-03-21T08:41:53.033Z,100125.06
2023-03-21T08:43:18.669Z,100128.06
2023-03-21T08:44:41.890Z,100163.59
2023-03-21T08:46:06.024Z,100163.09
2023-03-21T08:47:28.820Z,100146.88
2023-03-21T08:48:51.601Z,100170.72
2023-03-21T08:50:16.396Z,100169.56
2023-03-21T08:51:43.436Z,100162.75
2023-03-21T08:53:05.591Z,100148.81
2023-03-21T08:54:31.541Z,100166.78
2023-03-21T08:55:56.020Z,100173.69
2023-03-21T08:57:22.631Z,100166.00
2023-03-21T08:58:47.962Z,100165.59
2023-03-21T09:00:14.795Z,100180.41
2023-03-21T09:01:39.571Z,100168.56
2023-03-21T09:03:02.356Z,100167.91
2023-03-21T09:04:26.239Z,100174.78
2023-03-21T09:05:48.769Z,100176.19
2023-03-21T09:07:11.382Z,100159.41
2023-03-21T09:08:34.199Z,100176.09
2023-03-21T09:10:19.082Z,100175.00
2023-03-21T09:11:42.040Z,100173.50
2023-03-21T09:13:07.505Z,100176.28
2023-03-21T09:14:30.297Z,100177.22
2023-03-21T09:15:53.230Z,100192.88
2023-03-21T09:17:21.122Z,100182.19
2023-03-21T09:18:47.500Z,100178.97
2023-03-21T09:20:11.898Z,100190.06
2023-03-21T09:21:34.361Z,100188.69
2023-03-21T09:22:57.067Z,100183.56
2023-03-21T09:24:19.543Z,100175.88
2023-03-21T09:25:46.255Z,100173.22
2023-03-21T09:27:08.805Z,100177.00
2023-03-21T09:28:31.697Z,100176.66
2023-03-21T09:29:54.339Z,100182.91
2023-03-21T09:31:23.081Z,100141.22
2023-03-21T09:32:50.933Z,100179.34
2023-03-21T09:34:17.833Z,100162.06
2023-03-21T09:35:41.247Z,100140.81
2023-03-21T09:37:11.354Z,100174.56
2023-03-21T09:38:36.982Z,100176.66
2023-03-21T09:39:59.736Z,100189.97
2023-03-21T09:41:51.849Z,100166.44
2023-03-21T09:43:27.801Z,100180.59
2023-03-21T09:45:06.707Z,100165.75
2023-03-21T09:46:38.609Z,100178.63
2023-03-21T09:48:04.058Z,100140.25
2023-03-21T09:50:01.727Z,100169.91
2023-03-21T09:51:37.210Z,100172.97
2023-03-21T09:53:06.972Z,100176.03
2023-03-21T09:54:48.096Z,100139.97
2023-03-21T09:56:14.350Z,100171.31
2023-03-21T09:57:43.546Z,100171.03
2023-03-21T09:59:10.723Z,100171.03
2023-03-21T10:00:38.745Z,100166.81
2023-03-21T10:02:03.483Z,100179.47
2023-03-21T10:03:27.668Z,100171.03
2023-03-21T10:04:50.653Z,100163.44
2023-03-21T10:06:16.610Z,100156.63
2023-03-21T10:07:49.154Z,100171.03
2023-03-21T10:09:17.374Z,100157.91
2023-03-21T10:10:48.999Z,100172.03
2023-03-21T10:12:21.239Z,100160.31
2023-03-21T10:13:59.088Z,100164.97
2023-03-21T10:15:23.844Z,100169.91
2023-03-21T10:16:50.648Z,100166.78
2023-03-21T10:18:22.518Z,100147.22
2023-03-21T10:19:47.049Z,100153.13
2023-03-21T10:21:37.225Z,100171.63
2023-03-21T10:23:03.016Z,100166.81
2023-03-21T10:24:39.011Z,100133.59
2023-03-21T10:26:06.217Z,100152.78
2023-03-21T10:27:32.901Z,100163.09
2023-03-21T10:29:03.175Z,100164.28
2023-03-21T10:30:43.523Z,100167.59
2023-03-21T10:32:08.268Z,100171.47
2023-03-21T10:33:37.683Z,100167.22
2023-03-21T10:35:04.337Z,100171.34
2023-03-21T10:36:32.093Z,100161.94
2023-03-21T10:37:54.972Z,100170.44
2023-03-21T10:39:37.950Z,100171.53
2023-03-21T10:41:03.518Z,100167.66
2023-03-21T10:42:33.540Z,100162.09
2023-03-21T10:44:17.721Z,100161.69
2023-03-21T10:45:41.113Z,100162.06
2023-03-21T10:47:14.386Z,100149.41
2023-03-21T10:48:39.175Z,100155.41
2023-03-21T10:50:16.529Z,100145.75
2023-03-21T10:51:43.155Z,100149.56
2023-03-21T10:53:22.877Z,100162.50
2023-03-21T10:54:48.619Z,100143.50
2023-03-21T10:56:14.954Z,100174.81
2023-03-21T10:57:38.552Z,100172.41
2023-03-21T10:59:02.880Z,100161.47
2023-03-21T11:00:33.888Z,100174.09
2023-03-21T11:02:02.726Z,100170.31
2023-03-21T11:03:29.435Z,100176.00
2023-03-21T11:04:53.330Z,100161.31
2023-03-21T11:06:19.190Z,100164.06
2023-03-21T11:07:41.049Z,100161.09
2023-03-21T11:09:06.363Z,100177.91
2023-03-21T11:10:34.449Z,100170.09
2023-03-21T11:12:03.554Z,100168.06
2023-03-21T11:13:27.726Z,100162.25
2023-03-21T11:14:51.545Z,100164.88
2023-03-21T11:16:26.317Z,100168.97
2023-03-21T11:17:49.128Z,100159.47
2023-03-21T11:19:16.672Z,100162.66
2023-03-21T11:20:45.949Z,100150.88
2023-03-21T11:22:09.689Z,100163.06
2023-03-21T11:23:33.240Z,100163.84
2023-03-21T11:25:00.903Z,100161.53
2023-03-21T11:26:27.568Z,100136.81
2023-03-21T11:27:52.011Z,100121.31
2023-03-21T11:29:27.624Z,100153.47
2023-03-21T11:30:59.112Z,100145.03
2023-03-21T11:35:26.429Z,100150.63
2023-03-21T11:36:52.490Z,100155.31
2023-03-21T11:38:29.194Z,100140.88
2023-03-21T11:39:56.806Z,100130.88
2023-03-21T11:41:24.956Z,100147.94
2023-03-21T11:42:49.951Z,100147.13
2023-03-21T11:44:28.536Z,100145.06
2023-03-21T11:45:58.393Z,100146.16
2023-03-21T11:47:24.214Z,100134.13
2023-03-21T11:49:00.068Z,100141.75
2023-03-21T11:50:33.992Z,100144.25
2023-03-21T11:52:18.728Z,100145.06
2023-03-21T11:53:50.556Z,100135.88
2023-03-21T11:55:26.331Z,100146.31
2023-03-21T11:56:52.328Z,100141.69
2023-03-21T11:58:34.216Z,100120.06
2023-03-21T12:00:10.760Z,100107.66
2023-03-21T12:01:39.138Z,100096.91
2023-03-21T12:03:47.273Z,100138.56
2023-03-21T12:05:29.201Z,100137.56
2023-03-21T12:07:01.886Z,100135.50
2023-03-21T12:08:38.414Z,100132.19
2023-03-21T12:10:19.692Z,100131.81
2023-03-21T12:11:52.570Z,100135.34
2023-03-21T12:13:34.492Z,100127.59
2023-03-21T12:15:04.806Z,100108.81
2023-03-21T12:16:36.929Z,100120.19
2023-03-21T12:18:08.358Z,100127.69
2023-03-21T12:19:53.601Z,100096.84
2023-03-21T12:21:21.717Z,100115.91
2023-03-21T12:22:58.143Z,100087.78
2023-03-21T12:24:26.406Z,100119.78
2023-03-21T12:25:56.827Z,100098.69
2023-03-21T12:27:31.907Z,100089.50
2023-03-21T12:29:14.605Z,100111.84
2023-03-21T12:30:49.833Z,100101.59
2023-03-21T12:32:25.920Z,100116.47
2023-03-21T12:34:00.250Z,100108.06
2023-03-21T12:35:36.645Z,100103.00
2023-03-21T12:37:15.501Z,100093.53
2023-03-21T12:38:45.449Z,100081.47
2023-03-21T12:40:21.675Z,100090.91
2023-03-21T12:42:00.608Z,100102.31
2023-03-21T12:43:32.756Z,100093.91
2023-03-21T12:45:06.291Z,100081.59
2023-03-21T12:46:41.157Z,100072.81
2023-03-21T12:48:19.729Z,100079.00
2023-03-21T12:49:49.521Z,100093.97
2023-03-21T12:51:16.919Z,100075.69
2023-03-21T12:52:43.992Z,100072.53
2023-03-21T12:54:23.004Z,100088.53
2023-03-21T12:55:46.591Z,100081.88
2023-03-21T12:57:18.101Z,100081.28
2023-03-21T12:58:48.101Z,100072.13
2023-03-21T13:00:17.813Z,100060.19
2023-03-21T13:01:41.965Z,100082.63
2023-03-21T13:03:07.085Z,100079.28
2023-03-21T13:04:51.623Z,100078.81
2023-03-21T13:06:15.651Z,100077.53
2023-03-21T13:07:43.215Z,100070.06
2023-03-21T13:09:25.781Z,100051.56
2023-03-21T13:10:53.961Z,100069.09
2023-03-21T13:12:47.460Z,100061.63
2023-03-21T13:14:18.864Z,100044.69
2023-03-21T13:16:23.537Z,100054.72
2023-03-21T13:17:47.544Z,100027.94
2023-03-21T13:19:26.085Z,100058.91
2023-03-21T13:20:53.285Z,100041.84
2023-03-21T13:22:26.759Z,100061.16
2023-03-21T13:24:28.295Z,100044.03
2023-03-21T13:26:22.633Z,100012.06
2023-03-21T13:30:40.166Z,100029.19
2023-03-21T13:32:12.758Z,100051.41
2023-03-21T13:37:22.928Z,100021.25
2023-03-21T13:38:51.963Z,100021.38
2023-03-21T13:40:26.541Z,100047.63
2023-03-21T13:41:50.915Z,100020.41
2023-03-21T13:43:43.783Z,100050.03
2023-03-21T13:45:12.149Z,100029.03
2023-03-21T13:46:54.021Z,100033.78
2023-03-21T13:48:30.157Z,100037.00
2023-03-21T13:50:16.726Z,100034.50
2023-03-21T13:51:53.592Z,100043.88
2023-03-21T13:53:24.755Z,100037.38
2023-03-21T13:54:53.500Z,100038.81
2023-03-21T13:56:28.377Z,100042.16
2023-03-21T13:57:50.471Z,100040.06
2023-03-21T13:59:14.022Z,99996.97
2023-03-21T14:00:41.384Z,100037.50
2023-03-21T14:02:23.473Z,100002.97
2023-03-21T14:03:47.234Z,100034.13
2023-03-21T14:05:22.093Z,100036.44
2023-03-21T14:06:51.547Z,100039.56
2023-03-21T14:08:31.223Z,100033.13
2023-03-21T14:10:01.365Z,100037.53
2023-03-21T14:11:25.305Z,100038.16
2023-03-21T14:12:47.934Z,100029.41
2023-03-21T14:14:11.053Z,100029.63
2023-03-21T14:15:53.143Z,100033.63
2023-03-21T14:17:24.800Z,100033.22
2023-03-21T14:18:55.093Z,100029.88
2023-03-21T14:20:21.659Z,100024.69
2023-03-21T14:21:51.671Z,100031.16
2023-03-21T14:23:16.458Z,100018.84
2023-03-21T14:24:38.792Z,100018.03
2023-03-21T14:26:01.525Z,100020.97
2023-03-21T14:27:29.163Z,100019.31
2023-03-21T14:28:53.441Z,100015.97
2023-03-21T14:30:23.186Z,100019.97
2023-03-21T14:31:48.467Z,100010.16
2023-03-21T14:33:18.549Z,100017.50
2023-03-21T14:34:43.085Z,100019.19
2023-03-21T14:36:14.966Z,100014.63
2023-03-21T14:37:42.495Z,100019.84
2023-03-21T14:39:07.477Z,100014.03
2023-03-21T14:40:31.155Z,100011.75
2023-03-21T14:41:55.159Z,100005.91
2023-03-21T14:43:23.338Z,100008.91
2023-03-21T14:44:55.942Z,100002.88
2023-03-21T14:46:26.161Z,99994.78
2023-03-21T14:48:01.657Z,99999.41
2023-03-21T14:49:30.851Z,99955.94
2023-03-21T14:50:56.040Z,99978.66
2023-03-21T14:52:25.642Z,99979.97
2023-03-21T14:53:46.946Z,99996.84
2023-03-21T14:55:16.980Z,99992.72
2023-03-21T14:56:42.772Z,99985.66
2023-03-21T14:58:10.120Z,99996.50
2023-03-21T14:59:37.186Z,99997.13
2023-03-21T15:01:04.222Z,99996.31
2023-03-21T15:02:30.364Z,99994.25
2023-03-21T15:03:53.401Z,99998.41
2023-03-21T15:05:21.848Z,99991.53
2023-03-21T15:07:02.488Z,99990.72
2023-03-21T15:08:30.092Z,99978.66
2023-03-21T15:09:55.998Z,99992.59
2023-03-21T15:11:21.921Z,99972.63
2023-03-21T15:13:03.337Z,99992.41
2023-03-21T15:14:34.369Z,99983.22
2023-03-21T15:16:06.050Z,99987.38
2023-03-21T15:17:40.060Z,99993.66
2023-03-21T15:19:05.491Z,99977.22
2023-03-21T15:20:36.730Z,99978.44
2023-03-21T15:22:15.944Z,99971.38
2023-03-21T15:23:41.678Z,99990.75
2023-03-21T15:25:05.994Z,99952.03
2023-03-21T15:26:28.986Z,99984.72
2023-03-21T15:27:57.266Z,99995.13
2023-03-21T15:29:21.671Z,100000.78
2023-03-21T15:30:53.343Z,100002.03
2023-03-21T15:32:22.751Z,99999.94
2023-03-21T15:33:51.363Z,99982.44
2023-03-21T15:35:22.118Z,99997.66
2023-03-21T15:36:50.996Z,99991.22
2023-03-21T15:38:40.197Z,99976.00
2023-03-21T15:40:17.078Z,99996.41
2023-03-21T15:41:42.817Z,99987.84
2023-03-21T15:43:15.410Z,99987.22
2023-03-21T15:44:40.851Z,99980.16
2023-03-21T15:46:20.821Z,99990.34
2023-03-21T15:48:17.260Z,99949.34
2023-03-21T15:50:08.834Z,99963.06
2023-03-21T15:51:46.863Z,99988.47
2023-03-21T15:53:25.285Z,99983.50
2023-03-21T15:55:11.432Z,99981.19
2023-03-21T15:56:38.250Z,99987.00
2023-03-21T15:58:07.508Z,99987.44
2023-03-21T15:59:37.901Z,99986.59
2023-03-21T16:01:06.534Z,99984.06
2023-03-21T16:02:32.406Z,99965.31
2023-03-21T16:04:03.502Z,99978.66
2023-03-21T16:05:28.815Z,99982.41
2023-03-21T16:06:58.729Z,99978.47
2023-03-21T16:08:24.082Z,99969.69
2023-03-21T16:09:48.289Z,99978.66
2023-03-21T16:11:19.530Z,99956.13
2023-03-21T16:12:43.272Z,99983.84
2023-03-21T16:14:07.107Z,99951.31
2023-03-21T16:15:34.930Z,99978.41
2023-03-21T16:16:59.317Z,99944.63
2023-03-21T16:18:20.635Z,99974.47
2023-03-21T16:19:45.651Z,99974.66
2023-03-21T16:21:17.804Z,99980.25
2023-03-21T16:22:44.853Z,99981.69
2023-03-21T16:24:11.875Z,99975.63
2023-03-21T16:25:35.899Z,99953.78
2023-03-21T16:27:02.981Z,99981.03
2023-03-21T16:28:32.024Z,99939.31
2023-03-21T16:29:54.620Z,99977.88
2023-03-21T16:31:24.487Z,99951.41
2023-03-21T16:33:16.621Z,99987.63
2023-03-21T16:34:54.347Z,99992.41
2023-03-21T16:36:22.943Z,99942.59
2023-03-21T16:37:46.028Z,99982.59
2023-03-21T16:39:18.275Z,99982.56
2023-03-21T16:40:41.473Z,99985.88
2023-03-21T16:42:03.775Z,99984.38
2023-03-21T16:43:27.254Z,99975.63
2023-03-21T16:44:51.974Z,99959.97
2023-03-21T16:46:30.196Z,99971.41
2023-03-21T16:47:58.060Z,99985.81
2023-03-21T16:49:26.017Z,99963.69
2023-03-21T16:50:53.345Z,99963.84
2023-03-21T16:52:26.352Z,99968.19
2023-03-21T16:53:56.254Z,99984.91
2023-03-21T16:55:27.331Z,99967.97
2023-03-21T16:56:54.053Z,99965.03
2023-03-21T16:58:17.534Z,99987.09
2023-03-21T16:59:41.099Z,99993.56
2023-03-21T17:01:03.464Z,99991.88
2023-03-21T17:02:30.168Z,99981.03
2023-03-21T17:04:08.348Z,99964.69
2023-03-21T17:05:32.156Z,99990.38
2023-03-21T17:06:56.063Z,99993.47
2023-03-21T17:11:02.690Z,99964.84
2023-03-21T17:12:48.739Z,99995.28